Time;durP1;ratioP1;P1;durP2;ratioP2;P2;SDS_P1;SDS_P2;PMS_P1;PMS_P2;Temp;Humidity;BMP_temperature;BMP_pressure;BME280_temperature;BME280_humidity;BME280_pressure;Samples;Min_cycle;Max_cycle;Signal;HPM_P1;HPM_P2
2021/04/07 00:00:35;;;;;;;10.85;2.17;;;0.70;91.10;;;;;;5030268;28;20095;-74
2021/04/07 00:03:01;;;;;;;12.20;2.08;;;0.70;91.90;;;;;;5047713;28;20033;-74
2021/04/07 00:05:32;;;;;;;9.90;2.05;;;0.70;91.50;;;;;;5048680;28;20132;-74
2021/04/07 00:07:58;;;;;;;6.25;1.50;;;0.80;91.70;;;;;;5048539;28;20115;-74
2021/04/07 00:10:30;;;;;;;11.48;1.60;;;0.80;93.00;;;;;;5048528;28;20029;-74
2021/04/07 00:12:56;;;;;;;9.35;1.85;;;0.80;91.40;;;;;;5049091;28;20445;-74
2021/04/07 00:15:24;;;;;;;8.90;1.95;;;0.80;91.30;;;;;;5048499;28;20048;-74
2021/04/07 00:17:50;;;;;;;8.27;1.30;;;0.80;91.50;;;;;;5048883;28;20041;-75
2021/04/07 00:20:20;;;;;;;9.05;1.98;;;0.70;91.50;;;;;;5032755;28;20345;-74
2021/04/07 00:22:46;;;;;;;9.15;1.70;;;0.70;91.10;;;;;;5048217;28;20052;-74
2021/04/07 00:25:13;;;;;;;10.10;3.13;;;0.80;92.30;;;;;;5021906;28;20111;-74
2021/04/07 00:27:41;;;;;;;5.25;1.50;;;0.80;92.90;;;;;;5052197;28;20660;-74
2021/04/07 00:30:09;;;;;;;9.20;1.50;;;0.80;92.60;;;;;;5052240;28;20033;-74
2021/04/07 00:32:35;;;;;;;6.38;1.45;;;0.70;90.90;;;;;;5051217;28;20033;-74
2021/04/07 00:35:00;;;;;;;9.40;1.65;;;0.70;91.80;;;;;;5033691;28;20060;-74
2021/04/07 00:37:26;;;;;;;10.25;1.80;;;0.70;91.80;;;;;;5034127;28;20038;-74
2021/04/07 00:39:53;;;;;;;7.32;1.77;;;0.70;91.80;;;;;;5049702;28;20064;-74
2021/04/07 00:42:19;;;;;;;9.90;1.85;;;0.70;91.50;;;;;;5049533;28;20037;-74
2021/04/07 00:44:44;;;;;;;7.60;1.60;;;0.70;92.00;;;;;;5036261;28;20039;-74
2021/04/07 00:47:14;;;;;;;9.38;1.73;;;0.60;91.50;;;;;;5049016;28;20040;-75
2021/04/07 00:49:40;;;;;;;9.18;1.83;;;0.60;91.00;;;;;;5037568;28;20044;-74
2021/04/07 00:52:06;;;;;;;8.73;2.40;;;0.60;90.80;;;;;;5053718;28;20094;-74
2021/04/07 00:54:33;;;;;;;8.20;1.70;;;0.50;91.50;;;;;;5053830;28;20037;-74
2021/04/07 00:56:58;;;;;;;6.53;1.50;;;0.60;92.20;;;;;;5034576;28;20051;-74
2021/04/07 00:59:24;;;;;;;8.23;1.40;;;0.70;93.30;;;;;;5036706;28;20428;-74
2021/04/07 01:01:50;;;;;;;4.57;1.27;;;0.70;93.10;;;;;;5050560;28;20036;-74
2021/04/07 01:04:17;;;;;;;8.68;1.75;;;0.70;93.10;;;;;;5054322;28;20032;-74
2021/04/07 01:06:46;;;;;;;6.88;1.63;;;0.70;92.10;;;;;;5051064;28;20048;-74
2021/04/07 01:09:11;;;;;;;9.02;2.28;;;0.60;92.30;;;;;;5052648;28;20102;-74
2021/04/07 01:11:37;;;;;;;9.82;2.13;;;0.70;91.90;;;;;;5050212;28;20391;-74
2021/04/07 01:14:04;;;;;;;9.35;1.63;;;0.60;91.30;;;;;;5051060;28;20124;-74
2021/04/07 01:16:30;;;;;;;6.90;1.45;;;0.70;92.60;;;;;;5052667;28;20037;-74
2021/04/07 01:18:56;;;;;;;9.60;2.00;;;0.70;93.40;;;;;;5053459;28;20045;-74
2021/04/07 01:21:22;;;;;;;7.82;1.50;;;0.80;92.60;;;;;;5042989;28;20056;-74
2021/04/07 01:23:48;;;;;;;7.05;1.50;;;0.80;94.00;;;;;;5062149;28;20036;-73
2021/04/07 01:26:15;;;;;;;7.93;1.60;;;0.90;93.90;;;;;;5055096;28;20037;-74
2021/04/07 01:28:41;;;;;;;7.40;1.40;;;1.00;92.90;;;;;;5054352;28;20068;-74
2021/04/07 01:31:08;;;;;;;8.82;1.80;;;1.00;93.60;;;;;;5052289;28;20088;-74
2021/04/07 01:33:33;;;;;;;7.88;1.67;;;1.00;92.50;;;;;;5052768;28;20091;-74
2021/04/07 01:35:59;;;;;;;8.68;1.33;;;0.90;92.60;;;;;;5051275;28;20037;-74
2021/04/07 01:38:25;;;;;;;11.90;1.98;;;0.80;92.10;;;;;;5047345;28;20113;-74
2021/04/07 01:40:53;;;;;;;7.68;1.33;;;0.90;92.30;;;;;;5051480;28;20127;-74
2021/04/07 01:43:19;;;;;;;5.93;2.20;;;0.90;93.70;;;;;;5051050;28;20522;-74
2021/04/07 01:45:46;;;;;;;8.70;1.73;;;1.00;93.60;;;;;;5051706;28;20511;-74
2021/04/07 01:48:13;;;;;;;7.90;1.27;;;1.00;93.10;;;;;;5053500;28;20029;-73
2021/04/07 01:50:41;;;;;;;5.68;1.58;;;1.20;94.30;;;;;;5051289;28;20135;-74
2021/04/07 01:53:08;;;;;;;6.60;1.67;;;1.20;94.10;;;;;;5053354;28;20029;-74
2021/04/07 01:55:34;;;;;;;4.50;1.30;;;1.30;94.40;;;;;;5052360;28;20040;-74
2021/04/07 01:57:59;;;;;;;8.32;1.80;;;1.40;95.20;;;;;;5051242;28;20036;-74
2021/04/07 02:00:25;;;;;;;5.95;1.65;;;1.40;94.20;;;;;;5051112;28;20049;-74
2021/04/07 02:02:51;;;;;;;8.65;1.48;;;1.50;94.00;;;;;;5052125;28;20483;-74
2021/04/07 02:05:17;;;;;;;8.77;1.50;;;1.40;93.10;;;;;;5050760;28;20437;-74
2021/04/07 02:07:43;;;;;;;4.97;1.38;;;1.40;93.70;;;;;;5050095;28;20041;-74
2021/04/07 02:10:11;;;;;;;6.43;1.15;;;1.40;93.70;;;;;;5051184;28;20052;-74
2021/04/07 02:12:37;;;;;;;8.57;1.65;;;1.50;94.00;;;;;;5051264;28;20044;-74
2021/04/07 02:15:13;;;;;;;6.95;1.30;;;1.50;94.10;;;;;;5053062;28;20037;-74
2021/04/07 02:17:39;;;;;;;6.43;1.60;;;1.40;92.70;;;;;;5051501;28;20044;-74
2021/04/07 02:20:06;;;;;;;4.60;1.15;;;1.40;93.30;;;;;;5051357;28;20047;-74
2021/04/07 02:22:32;;;;;;;7.53;1.33;;;1.30;93.60;;;;;;5053209;28;20029;-74
2021/04/07 02:24:58;;;;;;;4.22;1.30;;;1.50;94.00;;;;;;5033462;28;20390;-74
2021/04/07 02:27:25;;;;;;;5.03;1.00;;;1.50;93.50;;;;;;5052406;28;20044;-74
2021/04/07 02:29:53;;;;;;;4.13;1.00;;;1.60;93.90;;;;;;5051781;28;20064;-74
2021/04/07 02:32:19;;;;;;;4.03;1.20;;;1.60;94.10;;;;;;5034183;28;20043;-74
2021/04/07 02:34:45;;;;;;;2.40;1.00;;;1.70;93.90;;;;;;5033993;28;20631;-74
2021/04/07 02:37:12;;;;;;;3.50;0.88;;;1.70;92.50;;;;;;5034891;28;20057;-74
2021/04/07 02:39:38;;;;;;;8.05;1.40;;;1.80;93.80;;;;;;5034211;28;20037;-74
2021/04/07 02:42:04;;;;;;;3.60;0.93;;;1.80;93.00;;;;;;5050658;28;20545;-74
2021/04/07 02:44:30;;;;;;;3.25;0.88;;;1.80;93.10;;;;;;5052456;28;20124;-74
2021/04/07 02:46:55;;;;;;;4.15;1.00;;;1.90;93.80;;;;;;5049745;28;20040;-74
2021/04/07 02:49:21;;;;;;;6.05;1.25;;;1.90;93.40;;;;;;5048838;28;20039;-74
2021/04/07 02:51:48;;;;;;;4.97;1.27;;;2.00;93.10;;;;;;5051799;28;20033;-74
2021/04/07 02:54:13;;;;;;;8.88;1.30;;;2.00;92.90;;;;;;5051368;28;20041;-74
2021/04/07 02:56:40;;;;;;;4.93;1.23;;;2.00;93.00;;;;;;5050307;28;20098;-75
2021/04/07 02:59:06;;;;;;;5.97;1.40;;;2.00;92.40;;;;;;5049950;28;20037;-75
2021/04/07 03:01:31;;;;;;;7.43;1.38;;;1.90;92.90;;;;;;5050618;28;20041;-74
2021/04/07 03:03:57;;;;;;;4.45;1.35;;;1.90;93.00;;;;;;5031416;28;20044;-75
2021/04/07 03:06:23;;;;;;;6.00;1.70;;;1.90;93.00;;;;;;5052282;28;20040;-75
2021/04/07 03:08:49;;;;;;;6.50;1.55;;;1.90;92.80;;;;;;5050020;28;20048;-75
2021/04/07 03:11:15;;;;;;;6.95;1.30;;;1.90;92.70;;;;;;5050401;28;20433;-75
2021/04/07 03:13:41;;;;;;;5.30;0.85;;;2.00;92.30;;;;;;5048555;28;20056;-75
2021/04/07 03:16:07;;;;;;;5.05;0.90;;;2.00;92.90;;;;;;5050915;28;20041;-75
2021/04/07 03:18:32;;;;;;;7.13;1.40;;;1.90;92.30;;;;;;5050901;28;20041;-75
2021/04/07 03:20:58;;;;;;;4.72;1.17;;;1.90;92.90;;;;;;5050041;28;20441;-75
2021/04/07 03:23:24;;;;;;;4.38;0.90;;;1.90;92.60;;;;;;5050469;28;20041;-75
2021/04/07 03:25:49;;;;;;;4.32;0.90;;;1.90;92.50;;;;;;5050317;28;20375;-75
2021/04/07 03:28:15;;;;;;;2.70;0.70;;;2.00;92.60;;;;;;5049238;28;20061;-75
2021/04/07 03:30:50;;;;;;;3.17;0.73;;;2.00;92.60;;;;;;5052009;28;20029;-75
2021/04/07 03:33:18;;;;;;;3.40;0.85;;;2.00;93.00;;;;;;5049062;28;20551;-75
2021/04/07 03:35:44;;;;;;;4.47;0.90;;;2.00;92.30;;;;;;5047750;28;20041;-75
2021/04/07 03:38:10;;;;;;;1.60;0.60;;;2.00;92.40;;;;;;5049765;28;20037;-75
2021/04/07 03:40:35;;;;;;;1.92;0.60;;;2.00;92.40;;;;;;5048328;28;20041;-75
2021/04/07 03:43:04;;;;;;;3.53;0.75;;;2.00;92.60;;;;;;5051082;28;20045;-75
2021/04/07 03:45:30;;;;;;;1.25;0.60;;;2.00;92.50;;;;;;5048400;28;20057;-75
2021/04/07 03:47:55;;;;;;;2.00;0.70;;;2.00;92.70;;;;;;5048609;28;20064;-75
2021/04/07 03:50:21;;;;;;;5.93;0.80;;;2.10;93.00;;;;;;5051679;28;20041;-74
2021/04/07 03:52:47;;;;;;;3.13;0.70;;;2.10;92.90;;;;;;5050562;28;20099;-74
2021/04/07 03:55:13;;;;;;;2.55;0.70;;;2.10;92.30;;;;;;5062755;22;20148;-76
2021/04/07 03:57:38;;;;;;;1.85;0.40;;;2.00;92.30;;;;;;5021724;28;20091;-76
2021/04/07 04:00:05;;;;;;;3.83;0.90;;;2.00;92.40;;;;;;5037566;28;20041;-76
2021/04/07 04:02:30;;;;;;;1.58;0.60;;;2.00;92.40;;;;;;5013411;28;20061;-76
2021/04/07 04:04:56;;;;;;;3.67;0.80;;;2.00;92.20;;;;;;5037445;28;20107;-75
2021/04/07 04:07:22;;;;;;;2.83;0.68;;;2.10;92.80;;;;;;5030514;28;20113;-76
2021/04/07 04:09:48;;;;;;;2.90;0.68;;;2.10;92.20;;;;;;5000492;28;20116;-76
2021/04/07 04:12:17;;;;;;;3.03;1.10;;;2.10;92.20;;;;;;5034961;28;20553;-76
2021/04/07 04:14:42;;;;;;;3.15;0.70;;;2.10;92.20;;;;;;5031850;28;20110;-76
2021/04/07 04:17:08;;;;;;;2.70;0.80;;;2.10;92.70;;;;;;5013577;28;20413;-75
2021/04/07 04:19:34;;;;;;;1.38;0.70;;;2.10;92.00;;;;;;5032395;28;20044;-76
2021/04/07 04:22:01;;;;;;;2.00;0.88;;;2.10;92.10;;;;;;5032333;28;20069;-76
2021/04/07 04:24:27;;;;;;;2.45;0.80;;;2.10;92.30;;;;;;5032250;28;20041;-76
2021/04/07 04:26:53;;;;;;;3.15;0.90;;;2.10;92.60;;;;;;5031626;28;20050;-76
2021/04/07 04:29:19;;;;;;;1.98;0.73;;;2.10;92.40;;;;;;5035366;28;20375;-77
2021/04/07 04:31:45;;;;;;;2.15;0.88;;;2.10;92.40;;;;;;5049533;28;20052;-77
2021/04/07 04:34:10;;;;;;;2.08;0.63;;;2.10;92.20;;;;;;5032694;28;20065;-76
2021/04/07 04:36:36;;;;;;;1.70;0.60;;;2.10;92.40;;;;;;5032786;28;20121;-77
2021/04/07 04:39:02;;;;;;;1.98;0.77;;;2.10;92.40;;;;;;5032189;28;20116;-76
2021/04/07 04:41:28;;;;;;;2.38;0.70;;;2.10;92.20;;;;;;5032309;28;20038;-76
2021/04/07 04:43:53;;;;;;;3.83;0.85;;;2.10;92.60;;;;;;5032475;28;20117;-77
2021/04/07 04:46:19;;;;;;;1.65;0.77;;;2.20;92.80;;;;;;5031847;28;20045;-78
2021/04/07 04:48:45;;;;;;;1.40;0.70;;;2.10;92.10;;;;;;5031662;28;20471;-77
2021/04/07 04:51:10;;;;;;;1.52;0.73;;;2.10;92.40;;;;;;5032485;28;20037;-78
2021/04/07 04:53:36;;;;;;;2.10;0.80;;;2.10;92.30;;;;;;5032795;28;20034;-78
2021/04/07 04:56:02;;;;;;;1.20;0.80;;;2.10;92.40;;;;;;5032299;28;20049;-77
2021/04/07 04:58:28;;;;;;;2.60;0.70;;;2.20;92.70;;;;;;5032393;28;20044;-77
2021/04/07 05:00:53;;;;;;;1.75;0.80;;;2.20;92.60;;;;;;5028121;28;20038;-77
2021/04/07 05:03:19;;;;;;;1.73;0.90;;;2.20;92.90;;;;;;5029662;28;20108;-77
2021/04/07 05:05:48;;;;;;;3.25;2.55;;;2.20;92.60;;;;;;5016009;28;20053;-77
2021/04/07 05:08:14;;;;;;;3.05;2.70;;;2.30;92.80;;;;;;5015699;28;20038;-77
2021/04/07 05:10:40;;;;;;;2.55;1.80;;;2.30;92.50;;;;;;5018107;28;20037;-77
2021/04/07 05:13:06;;;;;;;2.40;1.48;;;2.40;92.30;;;;;;5020994;28;20033;-76
2021/04/07 05:15:32;;;;;;;2.03;1.70;;;2.30;92.40;;;;;;5034884;28;20099;-76
2021/04/07 05:17:58;;;;;;;3.63;1.50;;;2.40;92.40;;;;;;5034371;28;20049;-76
2021/04/07 05:20:23;;;;;;;1.88;1.20;;;2.50;92.30;;;;;;5034542;28;20037;-76
2021/04/07 05:22:49;;;;;;;1.33;0.82;;;2.50;91.80;;;;;;5033487;28;20041;-76
2021/04/07 05:25:15;;;;;;;1.25;0.80;;;2.40;92.00;;;;;;5034662;28;20029;-76
2021/04/07 05:27:40;;;;;;;1.02;0.90;;;2.40;91.60;;;;;;5032433;28;20079;-76
2021/04/07 05:30:08;;;;;;;2.80;1.00;;;2.40;91.70;;;;;;5032674;28;20033;-76
2021/04/07 05:32:34;;;;;;;1.38;1.20;;;2.40;91.90;;;;;;5024319;28;20057;-76
2021/04/07 05:35:00;;;;;;;1.92;1.20;;;2.50;91.70;;;;;;5033376;28;20045;-76
2021/04/07 05:37:25;;;;;;;2.15;1.20;;;2.40;92.10;;;;;;5034348;28;20041;-77
2021/04/07 05:39:51;;;;;;;1.55;0.80;;;2.40;91.70;;;;;;5032845;28;20033;-77
2021/04/07 05:42:17;;;;;;;1.85;1.05;;;2.50;92.20;;;;;;5033825;28;20155;-77
2021/04/07 05:44:42;;;;;;;1.65;1.13;;;2.50;91.70;;;;;;5031980;28;20029;-76
2021/04/07 05:47:08;;;;;;;2.25;1.10;;;2.50;91.80;;;;;;5033450;28;20488;-76
2021/04/07 05:49:33;;;;;;;1.70;1.30;;;2.60;91.90;;;;;;5033685;28;20041;-77
2021/04/07 05:51:59;;;;;;;3.08;2.10;;;2.70;91.40;;;;;;5033051;28;20449;-77
2021/04/07 05:54:25;;;;;;;1.20;1.10;;;2.80;91.60;;;;;;5032915;28;20061;-77
2021/04/07 05:56:50;;;;;;;1.48;0.98;;;3.10;91.70;;;;;;5033612;28;20096;-77
2021/04/07 05:59:16;;;;;;;1.70;1.20;;;3.20;90.90;;;;;;5032458;28;20438;-77
2021/04/07 06:01:42;;;;;;;2.50;1.42;;;3.20;90.90;;;;;;5032063;28;20076;-77
2021/04/07 06:04:07;;;;;;;3.22;1.13;;;3.20;91.10;;;;;;5032012;28;20068;-77
2021/04/07 06:06:33;;;;;;;4.32;1.08;;;3.10;90.40;;;;;;5033100;28;20390;-77
2021/04/07 06:08:59;;;;;;;3.25;1.17;;;3.50;91.10;;;;;;5033054;28;20041;-77
2021/04/07 06:11:25;;;;;;;5.78;1.30;;;4.10;89.50;;;;;;5016572;28;20153;-77
2021/04/07 06:13:51;;;;;;;2.05;1.10;;;4.30;87.30;;;;;;5033728;28;20116;-77
2021/04/07 06:16:17;;;;;;;2.10;1.40;;;4.40;87.90;;;;;;5032971;28;20037;-76
2021/04/07 06:18:43;;;;;;;3.28;0.90;;;4.70;86.30;;;;;;5032445;28;20045;-77
2021/04/07 06:21:09;;;;;;;2.60;1.17;;;4.90;86.90;;;;;;5031727;28;20527;-77
2021/04/07 06:23:35;;;;;;;2.17;1.40;;;5.30;86.60;;;;;;5015824;28;20112;-77
2021/04/07 06:26:01;;;;;;;2.15;1.13;;;5.20;83.80;;;;;;5031741;28;20040;-77
2021/04/07 06:28:26;;;;;;;2.28;1.25;;;5.20;84.10;;;;;;5014993;28;20704;-77
2021/04/07 06:30:52;;;;;;;2.22;1.52;;;5.20;83.10;;;;;;5032160;28;20033;-77
2021/04/07 06:33:29;;;;;;;2.42;1.00;;;5.20;84.00;;;;;;5031454;28;20037;-76
2021/04/07 06:36:08;;;;;;;4.25;1.00;;;5.10;83.30;;;;;;5031815;28;20067;-76
2021/04/07 06:38:36;;;;;;;4.38;1.50;;;5.00;84.90;;;;;;5013565;28;20120;-76
2021/04/07 06:41:02;;;;;;;4.35;1.55;;;5.10;84.90;;;;;;5032480;28;20395;-76
2021/04/07 06:43:32;;;;;;;3.95;2.10;;;5.20;85.00;;;;;;5032252;28;20034;-76
2021/04/07 06:45:58;;;;;;;4.72;1.95;;;5.30;85.90;;;;;;5033836;28;20037;-75
2021/04/07 06:48:24;;;;;;;4.35;1.85;;;6.10;84.00;;;;;;5034228;28;20045;-76
2021/04/07 06:50:52;;;;;;;6.55;1.60;;;6.80;82.80;;;;;;5016777;28;20046;-75
2021/04/07 06:53:22;;;;;;;2.72;1.17;;;7.50;79.50;;;;;;5034536;28;20521;-76
2021/04/07 06:55:48;;;;;;;3.53;1.40;;;7.80;78.20;;;;;;5033088;28;20057;-76
2021/04/07 06:58:14;;;;;;;6.50;1.95;;;8.80;76.50;;;;;;5034018;28;20042;-76
2021/04/07 07:00:41;;;;;;;4.40;1.30;;;10.20;73.60;;;;;;5026121;28;20047;-76
2021/04/07 07:03:12;;;;;;;4.82;1.50;;;11.20;68.80;;;;;;5028363;28;20422;-76
2021/04/07 07:05:47;;;;;;;6.47;1.70;;;12.10;65.10;;;;;;5032752;28;20049;-76
2021/04/07 07:08:15;;;;;;;4.28;1.60;;;12.80;60.50;;;;;;5033072;28;20103;-77
2021/04/07 07:10:42;;;;;;;5.05;1.50;;;13.10;59.70;;;;;;5032728;28;20064;-77
2021/04/07 07:13:10;;;;;;;7.78;1.80;;;13.80;57.60;;;;;;5031667;28;20431;-75
2021/04/07 07:15:37;;;;;;;4.55;1.60;;;14.10;55.10;;;;;;5031102;28;20120;-76
2021/04/07 07:18:04;;;;;;;4.32;1.40;;;14.30;55.00;;;;;;5031613;28;20049;-76
2021/04/07 07:20:34;;;;;;;4.53;1.35;;;14.60;53.20;;;;;;5030518;28;20041;-75
2021/04/07 07:23:01;;;;;;;5.00;1.50;;;14.40;52.10;;;;;;5030469;28;20103;-77
2021/04/07 07:25:29;;;;;;;6.43;1.52;;;13.90;54.70;;;;;;5031135;28;20067;-77
2021/04/07 07:28:03;;;;;;;2.97;1.30;;;12.90;56.10;;;;;;5012898;28;20041;-77
2021/04/07 07:30:42;;;;;;;6.68;1.83;;;12.20;58.50;;;;;;5026171;28;20055;-77
2021/04/07 07:33:18;;;;;;;4.78;1.63;;;11.40;60.30;;;;;;5006185;28;20052;-77
2021/04/07 07:35:45;;;;;;;5.82;1.80;;;11.40;61.70;;;;;;5026477;28;20029;-77
2021/04/07 07:38:11;;;;;;;4.95;1.42;;;12.10;60.60;;;;;;5012715;28;20045;-77
2021/04/07 07:40:37;;;;;;;6.45;2.20;;;12.90;58.90;;;;;;5030878;28;20107;-77
2021/04/07 07:43:04;;;;;;;6.35;1.23;;;12.90;56.10;;;;;;5030785;28;20037;-77
2021/04/07 07:45:36;;;;;;;7.55;1.83;;;13.20;56.80;;;;;;5030883;28;20041;-74
2021/04/07 07:48:13;;;;;;;;;;;12.90;58.30;;;;;;5030891;28;20084;-74
2021/04/07 07:50:41;;;;;;;9.52;2.45;;;12.30;59.30;;;;;;5030817;28;19959;-74
2021/04/07 07:53:21;;;;;;;5.13;1.40;;;11.90;58.90;;;;;;5030430;28;20052;-78
2021/04/07 07:55:50;;;;;;;9.55;2.17;;;11.30;60.90;;;;;;5029848;28;20053;-79
2021/04/07 07:58:17;;;;;;;6.63;1.73;;;10.30;65.10;;;;;;5031552;28;20482;-75
2021/04/07 08:00:42;;;;;;;11.57;2.33;;;10.00;63.60;;;;;;5027375;28;20049;-76
2021/04/07 08:03:09;;;;;;;7.55;1.67;;;8.60;70.70;;;;;;4995473;28;20037;-76
2021/04/07 08:05:35;;;;;;;6.53;1.70;;;8.70;71.60;;;;;;5019978;28;20048;-77
2021/04/07 08:08:03;;;;;;;8.70;1.95;;;8.40;71.20;;;;;;5032838;28;20041;-77
2021/04/07 08:10:30;;;;;;;8.10;1.73;;;8.30;70.70;;;;;;5014034;28;20187;-77
2021/04/07 08:12:57;;;;;;;7.97;2.17;;;8.20;73.00;;;;;;5030620;28;20036;-76
2021/04/07 08:15:25;;;;;;;10.27;2.13;;;7.90;74.50;;;;;;5032942;28;20403;-76
2021/04/07 08:17:51;;;;;;;6.10;1.58;;;7.60;77.70;;;;;;5032218;28;20531;-76
2021/04/07 08:20:16;;;;;;;11.20;1.70;;;7.60;73.70;;;;;;5035803;28;20113;-76
2021/04/07 08:22:43;;;;;;;9.45;2.20;;;7.30;78.60;;;;;;5036179;28;20463;-76
2021/04/07 08:25:13;;;;;;;8.73;1.70;;;7.30;78.40;;;;;;5031222;28;20048;-76
2021/04/07 08:27:39;;;;;;;9.75;1.83;;;7.40;76.30;;;;;;5029138;28;20148;-76
2021/04/07 08:30:06;;;;;;;6.90;1.63;;;7.50;78.80;;;;;;5018714;28;20068;-76
2021/04/07 08:32:33;;;;;;;9.63;1.98;;;7.70;76.00;;;;;;5016080;28;20072;-76
2021/04/07 08:34:59;;;;;;;6.13;1.48;;;7.90;77.40;;;;;;5028699;28;20034;-77
2021/04/07 08:37:29;;;;;;;7.35;1.80;;;8.00;72.60;;;;;;5030442;28;20069;-76
2021/04/07 08:39:55;;;;;;;11.77;2.28;;;7.80;78.00;;;;;;5029442;28;20037;-75
2021/04/07 08:42:22;;;;;;;10.60;2.28;;;7.40;80.10;;;;;;5024989;28;20029;-76
2021/04/07 08:44:49;;;;;;;9.85;1.77;;;7.40;79.40;;;;;;5029973;28;20041;-77
2021/04/07 08:47:34;;;;;;;5.63;1.20;;;7.30;78.50;;;;;;5014657;28;20044;-76
2021/04/07 08:50:05;;;;;;;6.07;1.63;;;6.80;78.20;;;;;;5034083;28;20476;-76
2021/04/07 08:52:40;;;;;;;8.65;1.27;;;6.70;79.80;;;;;;5033949;28;20049;-76
2021/04/07 08:55:14;;;;;;;7.65;1.70;;;6.70;79.70;;;;;;5034630;28;20053;-75
2021/04/07 08:57:40;;;;;;;7.50;1.48;;;6.60;80.70;;;;;;5017175;28;20045;-75
2021/04/07 09:00:09;;;;;;;17.63;3.10;;;7.00;78.70;;;;;;5032476;28;20526;-75
2021/04/07 09:02:52;;;;;;;10.32;2.78;;;7.10;81.10;;;;;;5030573;28;20041;-75
2021/04/07 09:05:33;;;;;;;14.25;2.60;;;7.20;79.40;;;;;;5030132;28;20487;-75
2021/04/07 09:08:00;;;;;;;12.23;2.00;;;7.20;79.00;;;;;;5016533;28;20395;-75
2021/04/07 09:10:26;;;;;;;7.38;1.88;;;7.20;79.10;;;;;;5033293;28;20038;-74
2021/04/07 09:12:53;;;;;;;14.35;2.40;;;7.40;77.50;;;;;;5031741;28;20072;-75
2021/04/07 09:15:27;;;;;;;10.52;2.20;;;7.10;80.70;;;;;;5015213;28;20057;-74
2021/04/07 09:17:55;;;;;;;6.10;1.42;;;6.60;82.90;;;;;;5031043;28;20041;-75
2021/04/07 09:20:53;;;;;;;7.43;2.33;;;6.50;79.90;;;;;;5033041;28;20490;-75
2021/04/07 09:23:26;;;;;;;11.93;1.85;;;6.40;79.50;;;;;;5026073;28;20049;-75
2021/04/07 09:25:54;;;;;;;9.85;1.65;;;6.30;83.50;;;;;;5014713;28;20046;-75
2021/04/07 09:28:34;;;;;;;11.32;1.83;;;6.40;84.90;;;;;;5020617;28;20112;-75
2021/04/07 09:31:27;;;;;;;9.93;1.63;;;7.00;79.10;;;;;;5024065;28;20044;-76
2021/04/07 09:33:55;;;;;;;10.95;2.15;;;6.90;81.60;;;;;;5031708;28;20427;-75
2021/04/07 09:36:33;;;;;;;9.80;1.88;;;6.80;81.20;;;;;;5028958;28;20041;-75
2021/04/07 09:39:00;;;;;;;12.85;2.53;;;7.00;79.00;;;;;;5024081;28;20164;-75
2021/04/07 09:41:29;;;;;;;12.85;1.90;;;6.90;78.90;;;;;;5026490;28;20493;-75
2021/04/07 09:43:55;;;;;;;19.35;3.28;;;6.80;79.50;;;;;;5033865;28;20167;-75
2021/04/07 09:46:21;;;;;;;13.00;2.38;;;6.60;83.10;;;;;;5034296;28;20114;-75
2021/04/07 09:48:56;;;;;;;18.08;3.33;;;6.70;83.00;;;;;;5016874;28;20049;-76
2021/04/07 09:51:23;;;;;;;19.92;4.22;;;6.70;84.70;;;;;;5031614;28;20033;-75
2021/04/07 09:53:50;;;;;;;14.43;3.03;;;6.80;85.50;;;;;;5032706;28;20033;-76
2021/04/07 09:56:15;;;;;;;19.02;3.47;;;7.10;83.60;;;;;;5030422;28;20052;-76
2021/04/07 09:58:47;;;;;;;17.65;2.92;;;7.40;83.50;;;;;;4994482;28;20399;-76
2021/04/07 10:01:17;;;;;;;12.48;2.25;;;7.60;80.90;;;;;;5032828;28;20455;-76
2021/04/07 10:03:55;;;;;;;17.20;3.75;;;8.00;75.50;;;;;;5023119;28;20040;-76
2021/04/07 10:06:23;;;;;;;12.45;2.90;;;8.10;78.60;;;;;;5035166;28;20466;-75
2021/04/07 10:09:09;;;;;;;20.73;3.33;;;8.40;76.40;;;;;;5029807;28;20093;-75
2021/04/07 10:11:40;;;;;;;15.63;3.17;;;8.60;74.40;;;;;;5015221;28;20737;-75
2021/04/07 10:14:08;;;;;;;14.38;2.60;;;8.40;72.50;;;;;;5008949;28;20254;-75
2021/04/07 10:16:39;;;;;;;16.15;3.13;;;8.10;72.70;;;;;;5028227;28;20045;-75
2021/04/07 10:19:09;;;;;;;15.93;3.10;;;8.00;73.40;;;;;;5033593;28;20048;-75
2021/04/07 10:21:37;;;;;;;16.70;2.72;;;8.00;72.80;;;;;;5030774;28;20032;-75
2021/04/07 10:24:04;;;;;;;10.65;2.45;;;7.80;74.20;;;;;;5034500;28;20030;-76
2021/04/07 10:26:30;;;;;;;12.07;2.00;;;8.10;69.20;;;;;;5010535;28;20041;-76
2021/04/07 10:29:01;;;;;;;14.55;2.50;;;8.30;70.20;;;;;;5032841;28;20065;-77
2021/04/07 10:31:27;;;;;;;11.65;2.42;;;8.20;69.70;;;;;;5024395;28;20072;-77
2021/04/07 10:34:10;;;;;;;10.35;1.67;;;8.30;70.50;;;;;;5010918;28;20108;-77
2021/04/07 10:36:37;;;;;;;13.52;2.20;;;8.40;67.90;;;;;;5030599;28;20030;-76
2021/04/07 10:39:17;;;;;;;8.25;1.92;;;8.40;67.90;;;;;;5031896;28;20037;-79
2021/04/07 10:41:53;;;;;;;11.43;2.50;;;8.30;67.10;;;;;;5032048;28;20040;-75
2021/04/07 10:44:30;;;;;;;8.52;1.85;;;8.40;67.80;;;;;;5031217;28;20037;-75
2021/04/07 10:46:56;;;;;;;14.48;3.15;;;8.60;69.10;;;;;;5011480;28;20041;-74
2021/04/07 10:49:22;;;;;;;12.00;1.98;;;8.40;67.90;;;;;;5031070;28;20060;-74
2021/04/07 10:51:59;;;;;;;11.20;2.90;;;8.40;70.00;;;;;;5005962;28;20044;-74
2021/04/07 10:54:26;;;;;;;16.83;3.72;;;8.70;69.00;;;;;;5017722;28;20065;-76
2021/04/07 10:57:00;;;;;;;13.52;3.28;;;8.70;69.60;;;;;;5011453;28;20048;-75
2021/04/07 10:59:30;;;;;;;9.02;2.15;;;8.80;66.80;;;;;;5029921;28;20037;-76
2021/04/07 11:01:58;;;;;;;12.73;2.80;;;8.70;66.80;;;;;;5029960;28;20033;-75
2021/04/07 11:04:27;;;;;;;12.27;2.78;;;8.50;67.30;;;;;;5031387;28;20033;-76
2021/04/07 11:06:58;;;;;;;11.68;2.35;;;8.30;68.70;;;;;;5030901;28;20338;-75
2021/04/07 11:09:32;;;;;;;8.73;2.10;;;8.50;68.40;;;;;;5031121;28;20041;-75
2021/04/07 11:12:00;;;;;;;12.70;2.40;;;8.10;68.30;;;;;;5026223;28;20025;-75
2021/04/07 11:14:26;;;;;;;13.15;2.47;;;8.00;69.50;;;;;;4999990;28;20042;-75
2021/04/07 11:17:03;;;;;;;13.40;2.80;;;8.20;70.20;;;;;;5031718;28;20044;-75
2021/04/07 11:19:36;;;;;;;11.43;2.70;;;8.00;70.50;;;;;;5014050;28;20045;-74
2021/04/07 11:22:03;;;;;;;15.02;2.63;;;8.00;69.20;;;;;;5032522;28;20394;-75
2021/04/07 11:24:29;;;;;;;17.02;2.58;;;8.30;69.20;;;;;;5041944;28;20547;-75
2021/04/07 11:26:55;;;;;;;10.82;2.40;;;8.20;67.40;;;;;;5033857;28;20045;-74
2021/04/07 11:29:21;;;;;;;11.77;2.67;;;8.00;68.80;;;;;;5051504;28;20033;-75
2021/04/07 11:31:50;;;;;;;11.55;2.22;;;8.10;68.40;;;;;;5045172;28;20091;-76
2021/04/07 11:34:19;;;;;;;20.45;3.33;;;8.10;69.20;;;;;;5031013;28;20036;-74
2021/04/07 11:37:06;;;;;;;14.32;2.78;;;7.80;69.30;;;;;;5029705;28;20075;-73
2021/04/07 11:39:36;;;;;;;10.90;2.30;;;7.10;71.60;;;;;;5029980;28;20120;-74
2021/04/07 11:42:08;;;;;;;6.18;1.73;;;6.80;76.50;;;;;;5030631;28;20109;-74
2021/04/07 11:44:34;;;;;;;7.28;1.58;;;5.90;79.70;;;;;;5031185;28;20059;-74
2021/04/07 11:47:02;;;;;;;12.73;2.60;;;5.90;79.90;;;;;;5030575;28;20820;-74
2021/04/07 11:49:28;;;;;;;9.60;1.60;;;5.40;81.50;;;;;;5028729;28;20033;-75
2021/04/07 11:51:53;;;;;;;10.02;1.95;;;5.40;83.50;;;;;;5030424;28;20051;-75
2021/04/07 11:54:20;;;;;;;10.57;2.08;;;5.30;83.50;;;;;;5030518;28;20465;-75
2021/04/07 11:56:47;;;;;;;11.27;2.30;;;5.20;84.70;;;;;;5028889;28;20053;-74
2021/04/07 11:59:18;;;;;;;13.30;2.47;;;5.50;85.40;;;;;;5028749;28;20042;-75
2021/04/07 12:01:46;;;;;;;14.73;2.80;;;5.90;85.00;;;;;;5026942;28;20076;-75
2021/04/07 12:04:11;;;;;;;14.75;2.75;;;6.10;85.60;;;;;;5028577;28;20132;-76
2021/04/07 12:06:37;;;;;;;13.48;2.40;;;6.30;84.40;;;;;;5026299;28;20120;-75
2021/04/07 12:09:04;;;;;;;11.68;2.72;;;6.70;81.20;;;;;;5029269;28;20072;-75
2021/04/07 12:11:31;;;;;;;14.60;2.42;;;6.80;82.00;;;;;;5011653;28;20037;-74
2021/04/07 12:13:56;;;;;;;4.90;1.52;;;7.00;81.80;;;;;;5030297;28;20044;-75
2021/04/07 12:16:22;;;;;;;13.18;2.38;;;7.40;77.50;;;;;;5028805;28;20042;-76
2021/04/07 12:18:48;;;;;;;9.80;1.80;;;7.20;80.00;;;;;;5029161;28;20041;-75
2021/04/07 12:21:16;;;;;;;12.32;2.58;;;7.30;78.00;;;;;;5029432;28;20041;-75
2021/04/07 12:23:43;;;;;;;9.40;2.13;;;7.40;78.70;;;;;;5032993;28;20479;-75
2021/04/07 12:26:11;;;;;;;8.05;1.67;;;7.50;80.60;;;;;;5032085;28;20034;-75
2021/04/07 12:28:37;;;;;;;10.35;1.95;;;7.50;72.30;;;;;;5024775;28;20037;-75
2021/04/07 12:31:02;;;;;;;11.45;2.13;;;7.50;72.90;;;;;;5030491;28;20048;-75
2021/04/07 12:33:30;;;;;;;11.05;1.73;;;7.60;69.80;;;;;;5029806;28;20037;-75
2021/04/07 12:35:57;;;;;;;10.48;2.03;;;7.40;70.30;;;;;;5028325;28;20034;-75
2021/04/07 12:38:25;;;;;;;11.45;1.50;;;7.50;69.60;;;;;;5012067;28;20410;-75
2021/04/07 12:40:56;;;;;;;7.68;1.92;;;7.60;69.80;;;;;;5025288;28;20030;-74
2021/04/07 12:43:22;;;;;;;12.27;2.17;;;7.40;67.50;;;;;;5026278;28;20037;-75
2021/04/07 12:45:48;;;;;;;8.70;2.00;;;7.30;69.80;;;;;;5030844;28;20124;-75
2021/04/07 12:48:13;;;;;;;10.07;1.70;;;6.70;74.60;;;;;;5030651;28;20037;-76
2021/04/07 12:50:39;;;;;;;7.28;1.58;;;6.20;77.80;;;;;;5027420;28;20029;-77
2021/04/07 12:53:05;;;;;;;6.85;1.33;;;6.00;79.40;;;;;;5013100;28;20037;-77
2021/04/07 12:55:31;;;;;;;5.22;1.45;;;5.80;80.10;;;;;;5028477;28;20137;-77